Time;durP1;ratioP1;P1;durP2;ratioP2;P2;SDS_P1;SDS_P2;PMS_P1;PMS_P2;Temp;Humidity;BMP_temperature;BMP_pressure;BME280_temperature;BME280_humidity;BME280_pressure;Samples;Min_cycle;Max_cycle;Signal;HPM_P1;HPM_P2
2023/05/30 00:00:00;;;;;;;;;4.75;3.75;;;;;;;;5055251;28;45387;-60
2023/05/30 00:02:25;;;;;;;;;5.80;4.40;;;;;;;;5053826;28;48272;-61
2023/05/30 00:04:51;;;;;;;;;6.75;5.25;;;;;;;;5054769;28;45428;-61
2023/05/30 00:07:18;;;;;;;;;7.20;5.00;;;;;;;;5054909;28;45438;-61
2023/05/30 00:09:43;;;;;;;;;6.00;5.00;;;;;;;;5055334;28;45606;-62
2023/05/30 00:12:11;;;;;;;;;5.00;5.00;;;;;;;;5054777;28;46271;-62
2023/05/30 00:14:36;;;;;;;;;4.20;4.20;;;;;;;;5054643;28;45441;-62
2023/05/30 00:17:02;;;;;;;;;6.00;4.75;;;;;;;;5054879;28;45226;-61
2023/05/30 00:19:28;;;;;;;;;5.75;4.00;;;;;;;;5062742;28;45314;-61
2023/05/30 00:21:54;;;;;;;;;6.20;3.80;;;;;;;;5074785;28;46100;-61
2023/05/30 00:24:20;;;;;;;;;5.40;5.00;;;;;;;;5074720;28;45378;-61
2023/05/30 00:26:45;;;;;;;;;6.75;5.00;;;;;;;;5075166;28;45318;-61
2023/05/30 00:29:11;;;;;;;;;9.50;5.00;;;;;;;;5075028;28;45753;-61
2023/05/30 00:31:36;;;;;;;;;5.25;5.25;;;;;;;;5073171;28;46199;-62
2023/05/30 00:34:01;;;;;;;;;5.75;3.75;;;;;;;;5074827;28;45744;-61
2023/05/30 00:36:27;;;;;;;;;4.50;4.50;;;;;;;;5073621;28;45827;-61
2023/05/30 00:38:52;;;;;;;;;6.00;6.00;;;;;;;;5074982;28;45369;-61
2023/05/30 00:41:17;;;;;;;;;4.00;4.00;;;;;;;;5074134;28;46486;-61
2023/05/30 00:43:43;;;;;;;;;5.50;4.50;;;;;;;;5074538;28;45803;-62
2023/05/30 00:46:10;;;;;;;;;6.00;6.00;;;;;;;;5074920;27;45402;-61
2023/05/30 00:48:35;;;;;;;;;10.20;5.60;;;;;;;;5074429;28;45671;-61
2023/05/30 00:51:00;;;;;;;;;5.25;5.25;;;;;;;;5033931;28;47371;-61
2023/05/30 00:53:26;;;;;;;;;7.75;6.00;;;;;;;;5068339;28;45408;-61
2023/05/30 00:55:51;;;;;;;;;10.00;9.75;;;;;;;;5073567;28;45375;-61
2023/05/30 00:58:16;;;;;;;;;8.00;5.75;;;;;;;;5072879;28;46043;-61
2023/05/30 01:00:41;;;;;;;;;6.75;6.75;;;;;;;;5074604;28;46263;-61
2023/05/30 01:03:08;;;;;;;;;7.25;5.25;;;;;;;;5074400;27;45173;-61
2023/05/30 01:05:33;;;;;;;;;8.40;6.80;;;;;;;;5074287;27;45232;-61
2023/05/30 01:07:58;;;;;;;;;6.00;5.75;;;;;;;;5073457;28;45431;-61
2023/05/30 01:10:24;;;;;;;;;9.00;8.00;;;;;;;;5074218;28;46079;-61
2023/05/30 01:13:08;;;;;;;;;7.75;7.75;;;;;;;;5072720;28;45263;-61
2023/05/30 01:15:34;;;;;;;;;6.80;6.80;;;;;;;;5072945;28;45203;-61
2023/05/30 01:18:03;;;;;;;;;8.80;6.00;;;;;;;;5074568;27;45469;-61
2023/05/30 01:20:30;;;;;;;;;5.60;5.60;;;;;;;;5072239;28;47412;-61
2023/05/30 01:23:14;;;;;;;;;8.40;5.40;;;;;;;;5074109;27;45425;-61
2023/05/30 01:25:49;;;;;;;;;7.40;6.00;;;;;;;;5074411;27;45829;-61
2023/05/30 01:28:21;;;;;;;;;7.80;6.00;;;;;;;;5074212;27;45380;-61
2023/05/30 01:30:46;;;;;;;;;9.20;5.80;;;;;;;;5072094;28;46326;-62
2023/05/30 01:33:12;;;;;;;;;6.00;4.50;;;;;;;;5074168;27;45388;-61
2023/05/30 01:35:37;;;;;;;;;7.00;5.40;;;;;;;;5074008;27;45413;-61
2023/05/30 01:38:03;;;;;;;;;5.50;5.50;;;;;;;;5074546;27;45853;-62
2023/05/30 01:40:28;;;;;;;;;5.25;5.00;;;;;;;;5073276;28;45498;-61
2023/05/30 01:43:17;;;;;;;;;7.00;7.00;;;;;;;;5072679;28;45241;-61
2023/05/30 01:45:52;;;;;;;;;5.40;4.00;;;;;;;;5035561;27;45506;-61
2023/05/30 01:48:19;;;;;;;;;6.00;5.00;;;;;;;;5073074;28;45219;-62
2023/05/30 01:50:45;;;;;;;;;9.20;7.80;;;;;;;;5073539;27;47285;-62
2023/05/30 01:53:11;;;;;;;;;5.50;5.50;;;;;;;;5072469;28;45309;-62
2023/05/30 01:55:37;;;;;;;;;8.40;6.80;;;;;;;;5072796;28;45256;-62
2023/05/30 01:58:02;;;;;;;;;7.75;6.00;;;;;;;;5076230;28;45484;-62
2023/05/30 02:00:28;;;;;;;;;11.00;6.75;;;;;;;;5075534;28;45323;-62
2023/05/30 02:02:53;;;;;;;;;8.75;6.50;;;;;;;;5077129;28;45318;-62
2023/05/30 02:05:18;;;;;;;;;8.25;7.25;;;;;;;;5051408;28;45570;-62
2023/05/30 02:07:43;;;;;;;;;11.00;7.50;;;;;;;;5076756;28;45391;-62
2023/05/30 02:10:09;;;;;;;;;7.50;7.50;;;;;;;;5076638;28;45856;-62
2023/05/30 02:12:34;;;;;;;;;7.50;6.25;;;;;;;;5075777;28;45213;-62
2023/05/30 02:14:59;;;;;;;;;7.50;7.50;;;;;;;;5077108;27;45882;-62
2023/05/30 02:17:25;;;;;;;;;7.25;6.00;;;;;;;;5077093;27;45497;-61
2023/05/30 02:19:50;;;;;;;;;4.25;4.25;;;;;;;;5076724;27;46623;-62
2023/05/30 02:22:16;;;;;;;;;7.50;5.50;;;;;;;;5075413;28;45372;-62
2023/05/30 02:24:41;;;;;;;;;4.00;3.00;;;;;;;;5077181;27;45551;-62
2023/05/30 02:27:07;;;;;;;;;9.25;4.75;;;;;;;;5076924;28;45304;-62
2023/05/30 02:29:32;;;;;;;;;7.25;6.25;;;;;;;;5076564;27;46073;-61
2023/05/30 02:31:57;;;;;;;;;6.75;5.75;;;;;;;;5075306;28;45344;-62
2023/05/30 02:34:23;;;;;;;;;6.50;4.00;;;;;;;;5076842;27;45296;-61
2023/05/30 02:36:48;;;;;;;;;7.00;7.00;;;;;;;;5076641;28;45308;-62
2023/05/30 02:39:13;;;;;;;;;4.75;4.75;;;;;;;;5076545;28;45338;-61
2023/05/30 02:41:38;;;;;;;;;6.00;6.00;;;;;;;;5076373;28;45373;-62
2023/05/30 02:44:04;;;;;;;;;4.75;4.25;;;;;;;;5076817;28;45547;-61
2023/05/30 02:46:30;;;;;;;;;6.00;5.75;;;;;;;;5075445;28;45723;-61
2023/05/30 02:48:55;;;;;;;;;7.75;7.00;;;;;;;;5076106;28;47302;-61
2023/05/30 02:51:21;;;;;;;;;6.00;5.50;;;;;;;;5076431;28;45445;-61
2023/05/30 02:53:46;;;;;;;;;7.00;7.00;;;;;;;;5076201;28;45470;-60
2023/05/30 02:56:11;;;;;;;;;5.50;5.50;;;;;;;;5076454;28;45313;-61
2023/05/30 02:58:36;;;;;;;;;7.00;5.00;;;;;;;;5076057;28;45578;-62
2023/05/30 03:01:02;;;;;;;;;6.50;4.00;;;;;;;;5076039;28;45419;-61
2023/05/30 03:03:28;;;;;;;;;5.25;5.25;;;;;;;;5075961;28;45296;-61
2023/05/30 03:05:53;;;;;;;;;7.50;7.25;;;;;;;;5076325;28;45301;-61
2023/05/30 03:08:19;;;;;;;;;5.50;5.00;;;;;;;;5075579;28;47410;-61
2023/05/30 03:10:44;;;;;;;;;7.25;6.00;;;;;;;;5075770;28;45328;-61
2023/05/30 03:13:10;;;;;;;;;8.50;4.75;;;;;;;;5075983;28;45340;-61
2023/05/30 03:15:35;;;;;;;;;5.00;5.00;;;;;;;;5076072;28;45281;-61
2023/05/30 03:18:00;;;;;;;;;6.00;5.00;;;;;;;;5075812;28;45285;-61
2023/05/30 03:20:26;;;;;;;;;3.75;3.75;;;;;;;;5075108;28;45340;-61
2023/05/30 03:22:51;;;;;;;;;3.75;2.50;;;;;;;;5075956;27;45355;-61
2023/05/30 03:25:17;;;;;;;;;7.00;5.25;;;;;;;;5075921;27;45579;-61
2023/05/30 03:27:45;;;;;;;;;8.25;6.75;;;;;;;;5075384;27;45363;-61
2023/05/30 03:30:11;;;;;;;;;4.80;4.60;;;;;;;;5073909;28;45396;-61
2023/05/30 03:32:36;;;;;;;;;7.00;6.50;;;;;;;;5075759;27;45286;-61
2023/05/30 03:35:01;;;;;;;;;4.50;4.50;;;;;;;;5075969;28;45406;-61
2023/05/30 03:37:27;;;;;;;;;5.50;4.00;;;;;;;;5073718;28;46490;-61
2023/05/30 03:39:52;;;;;;;;;6.00;6.00;;;;;;;;5057042;28;45466;-61
2023/05/30 03:42:17;;;;;;;;;6.25;4.50;;;;;;;;5075944;27;45355;-61
2023/05/30 03:44:42;;;;;;;;;9.00;5.75;;;;;;;;5076071;28;45256;-61
2023/05/30 03:47:08;;;;;;;;;10.75;5.75;;;;;;;;5075541;28;46248;-61
2023/05/30 03:49:33;;;;;;;;;4.25;4.25;;;;;;;;5075410;28;45258;-61
2023/05/30 03:51:58;;;;;;;;;8.00;5.50;;;;;;;;5075764;28;45775;-61
2023/05/30 03:54:23;;;;;;;;;7.00;5.00;;;;;;;;5075714;28;45972;-61
2023/05/30 03:56:49;;;;;;;;;3.25;3.25;;;;;;;;5075576;28;45592;-61
2023/05/30 03:59:15;;;;;;;;;5.75;3.75;;;;;;;;5075839;28;45405;-61
2023/05/30 04:01:40;;;;;;;;;8.40;5.80;;;;;;;;5075310;28;45362;-61
2023/05/30 04:04:05;;;;;;;;;4.75;3.50;;;;;;;;5075744;27;45327;-61
2023/05/30 04:06:31;;;;;;;;;8.50;6.00;;;;;;;;5075049;28;46161;-61
2023/05/30 04:08:56;;;;;;;;;5.00;4.00;;;;;;;;5075524;28;45428;-62
2023/05/30 04:11:21;;;;;;;;;6.00;4.00;;;;;;;;5073936;28;45318;-61
2023/05/30 04:13:46;;;;;;;;;6.50;4.00;;;;;;;;5074998;28;45526;-61
2023/05/30 04:16:12;;;;;;;;;3.00;2.50;;;;;;;;5075227;27;46443;-61
2023/05/30 04:18:43;;;;;;;;;6.00;4.75;;;;;;;;5074326;28;45451;-61
2023/05/30 04:21:09;;;;;;;;;5.80;5.80;;;;;;;;5074941;27;45378;-62
2023/05/30 04:23:35;;;;;;;;;5.00;5.00;;;;;;;;5075203;27;45390;-62
2023/05/30 04:26:00;;;;;;;;;4.20;4.20;;;;;;;;5074920;28;46693;-62
2023/05/30 04:28:27;;;;;;;;;4.50;3.00;;;;;;;;5073365;28;45398;-62
2023/05/30 04:30:54;;;;;;;;;7.00;4.00;;;;;;;;5074493;28;45346;-62
2023/05/30 04:33:20;;;;;;;;;5.20;4.00;;;;;;;;5075065;28;45491;-62
2023/05/30 04:35:45;;;;;;;;;7.25;4.50;;;;;;;;5074434;28;46522;-64
2023/05/30 04:38:10;;;;;;;;;5.25;4.25;;;;;;;;5074720;28;45431;-62
2023/05/30 04:40:36;;;;;;;;;7.00;5.50;;;;;;;;5074684;28;45372;-62
2023/05/30 04:43:01;;;;;;;;;5.50;5.50;;;;;;;;5073339;28;45448;-61
2023/05/30 04:45:28;;;;;;;;;4.25;4.25;;;;;;;;5074333;28;45874;-61
2023/05/30 04:47:54;;;;;;;;;5.00;3.40;;;;;;;;5074233;28;45389;-62
2023/05/30 04:50:20;;;;;;;;;4.75;4.50;;;;;;;;5074611;27;45328;-62
2023/05/30 04:52:46;;;;;;;;;5.20;5.20;;;;;;;;5074474;28;45304;-61
2023/05/30 04:55:12;;;;;;;;;3.00;3.00;;;;;;;;5074705;28;46531;-62
2023/05/30 04:57:38;;;;;;;;;4.80;3.80;;;;;;;;5074728;27;45328;-61
2023/05/30 05:00:04;;;;;;;;;8.20;4.60;;;;;;;;5074119;28;45351;-62
2023/05/30 05:02:30;;;;;;;;;6.00;6.00;;;;;;;;5073533;28;45646;-62
2023/05/30 05:04:55;;;;;;;;;5.00;4.00;;;;;;;;5074279;28;46174;-62
2023/05/30 05:07:20;;;;;;;;;6.00;4.25;;;;;;;;5074305;28;45315;-62
2023/05/30 05:09:46;;;;;;;;;9.75;4.75;;;;;;;;5074578;28;45331;-62
2023/05/30 05:12:13;;;;;;;;;4.50;4.50;;;;;;;;5073059;28;45563;-61
2023/05/30 05:14:40;;;;;;;;;7.40;5.00;;;;;;;;5073169;28;48667;-61
2023/05/30 05:17:05;;;;;;;;;4.40;4.00;;;;;;;;5074095;27;45389;-62
2023/05/30 05:19:31;;;;;;;;;5.75;4.75;;;;;;;;5074513;27;45355;-61
2023/05/30 05:21:56;;;;;;;;;9.00;6.00;;;;;;;;5073224;28;45573;-61
2023/05/30 05:24:21;;;;;;;;;9.25;5.75;;;;;;;;5073846;28;45626;-61
2023/05/30 05:26:47;;;;;;;;;7.50;6.75;;;;;;;;5073722;28;45269;-60
2023/05/30 05:29:12;;;;;;;;;5.00;4.00;;;;;;;;5074113;28;45237;-61
2023/05/30 05:31:37;;;;;;;;;6.00;4.00;;;;;;;;5075837;28;45626;-61
2023/05/30 05:34:03;;;;;;;;;7.00;5.00;;;;;;;;5077380;28;45484;-60
2023/05/30 05:36:28;;;;;;;;;8.00;6.25;;;;;;;;5077557;28;45239;-61
2023/05/30 05:38:53;;;;;;;;;7.25;6.25;;;;;;;;5077635;27;45312;-61
2023/05/30 05:41:18;;;;;;;;;6.50;5.50;;;;;;;;5077587;28;45332;-61
2023/05/30 05:43:44;;;;;;;;;7.75;6.00;;;;;;;;5077277;27;46441;-61
2023/05/30 05:46:11;;;;;;;;;5.75;4.50;;;;;;;;5077788;27;45493;-61
2023/05/30 05:48:36;;;;;;;;;3.60;3.40;;;;;;;;5076346;28;45468;-61
2023/05/30 05:51:01;;;;;;;;;10.00;6.75;;;;;;;;5077971;28;45649;-62
2023/05/30 05:53:26;;;;;;;;;3.50;3.00;;;;;;;;5077260;28;45409;-61
2023/05/30 05:55:52;;;;;;;;;7.25;4.50;;;;;;;;5077878;27;45348;-61
2023/05/30 05:58:17;;;;;;;;;5.75;3.75;;;;;;;;5076495;28;45923;-62
2023/05/30 06:00:42;;;;;;;;;5.25;5.25;;;;;;;;5077402;28;45453;-62
2023/05/30 06:03:08;;;;;;;;;8.75;5.00;;;;;;;;5077505;28;46381;-62
2023/05/30 06:05:33;;;;;;;;;5.75;4.25;;;;;;;;5052891;27;45402;-62
2023/05/30 06:07:58;;;;;;;;;4.25;4.00;;;;;;;;5077973;28;45381;-62
2023/05/30 06:10:24;;;;;;;;;9.00;7.00;;;;;;;;5077428;28;45571;-62
2023/05/30 06:12:49;;;;;;;;;7.50;5.25;;;;;;;;5077230;27;47494;-62
2023/05/30 06:15:15;;;;;;;;;4.75;4.00;;;;;;;;5077389;28;45351;-63
2023/05/30 06:17:40;;;;;;;;;3.50;3.50;;;;;;;;5077249;27;45312;-62
2023/05/30 06:20:06;;;;;;;;;6.00;4.75;;;;;;;;5076961;28;45209;-62
2023/05/30 06:22:31;;;;;;;;;9.25;5.00;;;;;;;;5076972;27;45700;-62
2023/05/30 06:24:56;;;;;;;;;4.75;3.50;;;;;;;;5076865;28;45381;-63
2023/05/30 06:27:21;;;;;;;;;6.50;5.50;;;;;;;;5077046;28;45799;-61
2023/05/30 06:29:47;;;;;;;;;5.75;4.75;;;;;;;;5077131;28;45260;-62
2023/05/30 06:32:12;;;;;;;;;6.75;6.00;;;;;;;;5077064;28;46289;-61
2023/05/30 06:34:37;;;;;;;;;5.50;5.50;;;;;;;;5076689;28;45239;-62
2023/05/30 06:37:03;;;;;;;;;6.00;4.50;;;;;;;;5076653;28;45348;-60
2023/05/30 06:39:28;;;;;;;;;6.00;6.00;;;;;;;;5076991;27;45197;-61
2023/05/30 06:41:53;;;;;;;;;5.00;5.00;;;;;;;;5075965;28;46444;-60
2023/05/30 06:44:18;;;;;;;;;5.25;5.25;;;;;;;;5076810;28;45338;-61
2023/05/30 06:46:44;;;;;;;;;4.75;3.75;;;;;;;;5075136;28;45361;-63
2023/05/30 06:49:09;;;;;;;;;8.00;6.50;;;;;;;;5075852;28;45256;-60
2023/05/30 06:51:36;;;;;;;;;7.00;5.00;;;;;;;;5076288;28;46346;-61
2023/05/30 06:54:01;;;;;;;;;10.60;7.20;;;;;;;;5075105;28;45422;-61
2023/05/30 06:56:26;;;;;;;;;8.75;7.00;;;;;;;;5076500;28;45678;-61
2023/05/30 06:58:52;;;;;;;;;7.25;6.25;;;;;;;;5076816;28;45524;-61
2023/05/30 07:01:17;;;;;;;;;6.00;5.00;;;;;;;;5076396;28;46200;-61
2023/05/30 07:03:42;;;;;;;;;4.50;4.25;;;;;;;;5076273;28;45388;-60
2023/05/30 07:06:07;;;;;;;;;7.50;5.00;;;;;;;;5043046;27;45606;-61
2023/05/30 07:08:33;;;;;;;;;6.00;5.00;;;;;;;;5075352;28;45369;-60
2023/05/30 07:10:58;;;;;;;;;3.00;3.00;;;;;;;;5074481;28;46221;-63
2023/05/30 07:13:23;;;;;;;;;6.50;5.50;;;;;;;;5076148;28;45463;-61
2023/05/30 07:15:48;;;;;;;;;9.75;7.25;;;;;;;;5074987;28;45316;-61
2023/05/30 07:18:14;;;;;;;;;5.00;4.00;;;;;;;;5076536;28;45289;-61
2023/05/30 07:20:39;;;;;;;;;4.50;4.50;;;;;;;;5075798;27;45788;-61
2023/05/30 07:23:05;;;;;;;;;6.00;5.00;;;;;;;;5075879;28;45381;-62
2023/05/30 07:25:30;;;;;;;;;3.50;3.50;;;;;;;;5076242;28;45331;-61
2023/05/30 07:27:55;;;;;;;;;7.75;6.75;;;;;;;;5076329;28;45625;-62
2023/05/30 07:30:21;;;;;;;;;8.00;7.00;;;;;;;;5075656;27;46093;-61
2023/05/30 07:32:46;;;;;;;;;6.25;5.25;;;;;;;;5071400;27;45198;-61
2023/05/30 07:35:12;;;;;;;;;7.75;6.50;;;;;;;;5065285;28;45369;-62
2023/05/30 07:37:37;;;;;;;;;6.50;5.00;;;;;;;;5058253;28;45438;-64
2023/05/30 07:40:04;;;;;;;;;7.00;4.50;;;;;;;;5060870;28;45950;-62
2023/05/30 07:42:29;;;;;;;;;7.00;4.00;;;;;;;;5060826;27;45459;-63
2023/05/30 07:44:55;;;;;;;;;7.00;5.00;;;;;;;;5058805;28;45487;-64
2023/05/30 07:47:20;;;;;;;;;7.50;6.25;;;;;;;;5063974;28;45947;-63
2023/05/30 07:49:46;;;;;;;;;5.50;5.00;;;;;;;;5063831;28;45526;-63
2023/05/30 07:52:13;;;;;;;;;7.60;5.00;;;;;;;;5061051;28;45619;-63
2023/05/30 07:54:38;;;;;;;;;7.75;5.25;;;;;;;;5063250;28;45902;-62
2023/05/30 07:57:04;;;;;;;;;11.25;5.75;;;;;;;;5056578;28;45453;-62
2023/05/30 07:59:29;;;;;;;;;7.00;6.50;;;;;;;;5062751;28;46014;-61
2023/05/30 08:01:54;;;;;;;;;6.25;6.25;;;;;;;;5059940;28;45425;-63
2023/05/30 08:04:20;;;;;;;;;9.00;5.00;;;;;;;;5064986;28;45413;-62
2023/05/30 08:06:45;;;;;;;;;8.00;5.00;;;;;;;;5051353;27;45238;-62
2023/05/30 08:09:10;;;;;;;;;7.50;7.00;;;;;;;;5071009;28;45767;-63
2023/05/30 08:11:36;;;;;;;;;10.00;5.50;;;;;;;;5072347;28;45323;-62
2023/05/30 08:14:03;;;;;;;;;8.50;5.00;;;;;;;;5073247;28;45597;-60
2023/05/30 08:16:28;;;;;;;;;6.20;4.40;;;;;;;;5057432;28;45483;-61
2023/05/30 08:18:53;;;;;;;;;7.75;7.75;;;;;;;;5056833;28;45572;-63
2023/05/30 08:21:18;;;;;;;;;8.25;6.75;;;;;;;;5074804;28;45240;-61
2023/05/30 08:23:45;;;;;;;;;6.00;4.00;;;;;;;;5053697;27;45585;-63
2023/05/30 08:26:11;;;;;;;;;6.40;6.40;;;;;;;;5089320;27;45750;-62
2023/05/30 08:28:36;;;;;;;;;10.25;6.75;;;;;;;;5090866;27;46087;-62
2023/05/30 08:31:03;;;;;;;;;6.00;5.75;;;;;;;;5070878;28;45839;-63
2023/05/30 08:33:28;;;;;;;;;6.00;6.00;;;;;;;;5055007;28;45528;-62
2023/05/30 08:35:53;;;;;;;;;9.75;5.00;;;;;;;;5050409;28;45504;-57
2023/05/30 08:38:19;;;;;;;;;10.00;5.00;;;;;;;;5050908;28;45733;-63
2023/05/30 08:40:45;;;;;;;;;10.50;6.25;;;;;;;;5059761;28;45471;-62
2023/05/30 08:43:10;;;;;;;;;6.50;5.00;;;;;;;;5056773;28;45311;-62
2023/05/30 08:45:36;;;;;;;;;5.00;5.00;;;;;;;;5051517;28;45541;-62
2023/05/30 08:48:02;;;;;;;;;7.00;5.00;;;;;;;;5045016;28;47756;-61
2023/05/30 08:50:28;;;;;;;;;7.00;5.00;;;;;;;;5070604;27;45422;-63
2023/05/30 08:52:53;;;;;;;;;5.60;5.00;;;;;;;;5063403;28;45404;-62
2023/05/30 08:55:22;;;;;;;;;9.00;7.00;;;;;;;;5045058;28;46317;-61
2023/05/30 08:58:08;;;;;;;;;9.00;8.40;;;;;;;;5051167;28;45908;-63
2023/05/30 09:00:33;;;;;;;;;9.20;8.60;;;;;;;;5059569;28;45404;-63
2023/05/30 09:02:58;;;;;;;;;3.50;2.50;;;;;;;;5072961;28;45360;-62
2023/05/30 09:05:24;;;;;;;;;7.75;7.50;;;;;;;;5062724;27;45444;-58
2023/05/30 09:07:49;;;;;;;;;5.00;2.75;;;;;;;;5038836;28;45883;-55
2023/05/30 09:10:15;;;;;;;;;7.75;6.00;;;;;;;;5057318;28;45414;-56
2023/05/30 09:12:43;;;;;;;;;3.75;3.00;;;;;;;;5055740;28;45276;-60
2023/05/30 09:15:08;;;;;;;;;6.20;5.20;;;;;;;;5057783;28;45614;-61
2023/05/30 09:17:34;;;;;;;;;5.75;5.00;;;;;;;;5057323;28;45320;-55
2023/05/30 09:19:59;;;;;;;;;5.75;5.75;;;;;;;;5071302;28;45424;-56
2023/05/30 09:22:25;;;;;;;;;8.00;6.75;;;;;;;;5039618;28;45702;-60
2023/05/30 09:24:56;;;;;;;;;6.00;6.00;;;;;;;;5035616;28;46040;-60
2023/05/30 09:27:22;;;;;;;;;3.60;3.60;;;;;;;;5018494;28;47202;-52
2023/05/30 09:29:47;;;;;;;;;6.00;5.00;;;;;;;;5036498;28;45305;-59
2023/05/30 09:32:12;;;;;;;;;7.25;5.00;;;;;;;;5037851;28;45305;-61
2023/05/30 09:34:38;;;;;;;;;8.00;7.25;;;;;;;;5039051;28;45555;-62
2023/05/30 09:37:04;;;;;;;;;7.25;6.00;;;;;;;;5035814;28;46111;-61
2023/05/30 09:39:29;;;;;;;;;8.00;6.50;;;;;;;;5036819;28;45600;-62
2023/05/30 09:41:56;;;;;;;;;6.75;6.75;;;;;;;;5036617;28;45226;-61
2023/05/30 09:44:21;;;;;;;;;6.80;6.00;;;;;;;;5037975;28;45356;-61
2023/05/30 09:46:47;;;;;;;;;4.75;4.75;;;;;;;;5056703;28;46556;-61
2023/05/30 09:49:13;;;;;;;;;6.00;6.00;;;;;;;;5056860;28;45430;-63
2023/05/30 09:51:38;;;;;;;;;7.50;6.00;;;;;;;;5054921;28;45698;-60
2023/05/30 09:54:04;;;;;;;;;5.25;5.25;;;;;;;;5038481;27;45607;-62
2023/05/30 09:56:36;;;;;;;;;6.60;4.60;;;;;;;;5042811;28;45494;-63
2023/05/30 09:59:06;;;;;;;;;4.40;4.40;;;;;;;;5046728;28;45309;-63
2023/05/30 10:01:36;;;;;;;;;6.40;5.20;;;;;;;;5071092;28;45313;-61
2023/05/30 10:04:02;;;;;;;;;6.20;4.40;;;;;;;;5056198;28;45379;-62
2023/05/30 10:06:27;;;;;;;;;6.25;4.25;;;;;;;;5054686;28;48606;-61
2023/05/30 10:08:52;;;;;;;;;6.25;5.25;;;;;;;;5070748;28;45486;-63
2023/05/30 10:11:17;;;;;;;;;9.50;8.00;;;;;;;;5025847;28;46014;-61
2023/05/30 10:13:43;;;;;;;;;5.75;4.25;;;;;;;;5053729;28;45744;-63
2023/05/30 10:16:14;;;;;;;;;6.00;4.25;;;;;;;;5055658;28;45835;-62
2023/05/30 10:18:43;;;;;;;;;5.00;4.00;;;;;;;;5056135;28;45283;-63
2023/05/30 10:21:08;;;;;;;;;7.60;6.20;;;;;;;;5050803;28;45668;-62
2023/05/30 10:23:33;;;;;;;;;9.50;7.00;;;;;;;;5056542;28;45815;-63
2023/05/30 10:25:59;;;;;;;;;8.00;5.75;;;;;;;;5071755;28;45431;-61
2023/05/30 10:28:28;;;;;;;;;5.50;5.00;;;;;;;;5056210;28;45295;-63
2023/05/30 10:30:53;;;;;;;;;6.40;5.80;;;;;;;;5054999;28;45345;-62
2023/05/30 10:33:18;;;;;;;;;6.25;5.25;;;;;;;;5070774;28;45707;-62
2023/05/30 10:35:46;;;;;;;;;6.25;4.75;;;;;;;;5071872;28;46516;-62
2023/05/30 10:38:11;;;;;;;;;6.00;5.60;;;;;;;;5054565;28;45889;-61
2023/05/30 10:40:49;;;;;;;;;4.50;3.25;;;;;;;;5054695;28;45412;-63
2023/05/30 10:43:14;;;;;;;;;4.00;4.00;;;;;;;;5054724;28;45491;-63
2023/05/30 10:45:40;;;;;;;;;5.00;5.00;;;;;;;;5052182;28;46426;-63
2023/05/30 10:48:10;;;;;;;;;6.00;4.50;;;;;;;;5034098;28;45351;-67
2023/05/30 10:50:42;;;;;;;;;6.00;5.40;;;;;;;;5054279;28;45551;-63
2023/05/30 10:53:14;;;;;;;;;8.20;8.20;;;;;;;;5055949;28;45318;-64
2023/05/30 10:55:40;;;;;;;;;44.00;35.60;;;;;;;;5045948;28;46859;-64
2023/05/30 10:58:25;;;;;;;;;77.00;58.25;;;;;;;;5053123;28;45547;-58
2023/05/30 11:00:50;;;;;;;;;79.33;62.00;;;;;;;;5050620;28;45558;-60
2023/05/30 11:03:34;;;;;;;;;79.00;68.67;;;;;;;;5049537;28;45353;-60
2023/05/30 11:05:59;;;;;;;;;66.50;53.25;;;;;;;;5045126;28;46418;-60
2023/05/30 11:08:24;;;;;;;;;65.50;53.00;;;;;;;;5052851;28;45386;-62
2023/05/30 11:10:55;;;;;;;;;39.75;35.50;;;;;;;;5069424;28;45488;-61
2023/05/30 11:13:20;;;;;;;;;56.00;46.25;;;;;;;;5053366;28;45660;-64
2023/05/30 11:15:45;;;;;;;;;66.50;49.00;;;;;;;;5070263;28;45577;-64
2023/05/30 11:18:17;;;;;;;;;65.75;51.75;;;;;;;;5054527;28;45422;-62
2023/05/30 11:20:52;;;;;;;;;55.40;44.80;;;;;;;;5070112;28;45492;-60
2023/05/30 11:23:18;;;;;;;;;51.60;42.00;;;;;;;;5052184;28;45417;-60
2023/05/30 11:25:44;;;;;;;;;52.50;43.25;;;;;;;;5054252;28;45432;-59
2023/05/30 11:28:15;;;;;;;;;53.25;43.50;;;;;;;;5052009;28;45415;-57
2023/05/30 11:30:47;;;;;;;;;28.20;27.00;;;;;;;;5051502;28;45583;-62
2023/05/30 11:33:13;;;;;;;;;29.00;27.80;;;;;;;;5030006;28;47078;-62
2023/05/30 11:35:38;;;;;;;;;23.25;21.25;;;;;;;;5050732;28;46699;-51
2023/05/30 11:38:06;;;;;;;;;14.50;12.50;;;;;;;;5066610;28;45396;-58
2023/05/30 11:40:31;;;;;;;;;34.20;31.60;;;;;;;;5052335;28;45479;-59
2023/05/30 11:42:57;;;;;;;;;40.50;33.50;;;;;;;;5039431;28;45384;-58
2023/05/30 11:45:23;;;;;;;;;28.40;25.40;;;;;;;;5032046;28;46603;-62
2023/05/30 11:47:49;;;;;;;;;23.75;23.75;;;;;;;;5050037;28;45777;-59
2023/05/30 11:50:14;;;;;;;;;13.00;11.25;;;;;;;;5052155;28;45368;-62
2023/05/30 11:52:40;;;;;;;;;17.50;16.25;;;;;;;;5052847;28;45421;-63
2023/05/30 11:55:05;;;;;;;;;22.75;19.00;;;;;;;;5024721;28;46691;-60
2023/05/30 11:57:31;;;;;;;;;15.50;14.25;;;;;;;;5027937;28;45677;-55
2023/05/30 11:59:57;;;;;;;;;24.40;24.40;;;;;;;;5050300;28;45695;-53
2023/05/30 12:02:26;;;;;;;;;28.50;27.50;;;;;;;;5067537;28;45365;-58
2023/05/30 12:04:57;;;;;;;;;26.20;24.20;;;;;;;;5067206;28;46194;-56
2023/05/30 12:07:23;;;;;;;;;12.20;9.60;;;;;;;;5051722;28;45442;-57
2023/05/30 12:09:48;;;;;;;;;20.00;16.75;;;;;;;;5051332;28;45467;-55
2023/05/30 12:12:13;;;;;;;;;18.25;15.25;;;;;;;;5046964;28;45452;-56
2023/05/30 12:14:41;;;;;;;;;32.00;29.50;;;;;;;;5050418;28;48512;-55
2023/05/30 12:17:16;;;;;;;;;34.80;28.80;;;;;;;;5051956;28;45610;-56
2023/05/30 12:19:42;;;;;;;;;16.20;14.80;;;;;;;;5051452;28;45352;-55
2023/05/30 12:22:08;;;;;;;;;21.75;21.00;;;;;;;;5046771;28;45872;-55
2023/05/30 12:24:35;;;;;;;;;20.25;17.00;;;;;;;;5051635;28;46447;-52
2023/05/30 12:27:01;;;;;;;;;16.60;15.80;;;;;;;;5050073;28;45384;-60
2023/05/30 12:29:26;;;;;;;;;14.20;12.00;;;;;;;;5051897;28;45379;-61
2023/05/30 12:31:52;;;;;;;;;18.25;14.25;;;;;;;;5042247;28;45588;-58
2023/05/30 12:34:18;;;;;;;;;17.75;16.00;;;;;;;;5050530;28;46125;-57
2023/05/30 12:36:45;;;;;;;;;10.80;10.00;;;;;;;;5051273;28;45400;-57
2023/05/30 12:39:10;;;;;;;;;9.60;9.60;;;;;;;;5050288;28;45348;-54
2023/05/30 12:41:39;;;;;;;;;10.00;9.00;;;;;;;;5050969;28;45491;-52
2023/05/30 12:44:04;;;;;;;;;8.60;8.60;;;;;;;;5049828;28;45662;-58
2023/05/30 12:46:31;;;;;;;;;16.75;15.50;;;;;;;;5048383;28;45771;-59
2023/05/30 12:48:56;;;;;;;;;11.20;10.20;;;;;;;;5050747;28;45464;-58
2023/05/30 12:51:21;;;;;;;;;21.25;21.25;;;;;;;;5051143;28;45654;-59
2023/05/30 12:53:52;;;;;;;;;14.00;11.25;;;;;;;;5049399;28;46580;-60
2023/05/30 12:56:18;;;;;;;;;11.40;10.20;;;;;;;;5042075;28;45323;-59
2023/05/30 12:58:43;;;;;;;;;10.50;9.75;;;;;;;;5050180;28;45309;-58
2023/05/30 13:01:08;;;;;;;;;8.25;8.25;;;;;;;;5050393;28;45347;-61
2023/05/30 13:03:34;;;;;;;;;10.75;10.00;;;;;;;;5052497;28;45662;-62
2023/05/30 13:05:59;;;;;;;;;7.00;5.25;;;;;;;;5013448;28;45588;-61
2023/05/30 13:08:25;;;;;;;;;14.00;9.25;;;;;;;;5041051;28;45427;-63
2023/05/30 13:10:51;;;;;;;;;15.60;11.40;;;;;;;;5040730;28;45757;-61
2023/05/30 13:13:17;;;;;;;;;9.25;9.25;;;;;;;;5040707;28;47115;-62
2023/05/30 13:15:42;;;;;;;;;19.50;18.00;;;;;;;;5057971;28;45936;-61
2023/05/30 13:18:07;;;;;;;;;23.00;18.75;;;;;;;;5042771;28;45313;-62
2023/05/30 13:20:33;;;;;;;;;10.25;9.25;;;;;;;;5041435;28;45611;-62
2023/05/30 13:22:58;;;;;;;;;13.75;11.50;;;;;;;;5040926;28;45321;-61
2023/05/30 13:25:23;;;;;;;;;10.00;10.00;;;;;;;;5042501;28;45413;-62
2023/05/30 13:27:50;;;;;;;;;17.75;14.00;;;;;;;;5041055;28;45433;-63
2023/05/30 13:30:15;;;;;;;;;9.00;6.20;;;;;;;;5049151;28;45394;-62
2023/05/30 13:32:41;;;;;;;;;9.50;9.50;;;;;;;;5039816;28;46548;-62
2023/05/30 13:35:06;;;;;;;;;9.00;7.75;;;;;;;;5051881;28;45455;-62
2023/05/30 13:37:32;;;;;;;;;8.00;6.25;;;;;;;;5067759;28;45334;-61
2023/05/30 13:39:57;;;;;;;;;7.50;7.50;;;;;;;;5052269;28;45350;-60
2023/05/30 13:42:23;;;;;;;;;9.00;9.00;;;;;;;;5052949;28;46246;-62
2023/05/30 13:44:48;;;;;;;;;9.00;7.50;;;;;;;;5052936;28;45432;-62
2023/05/30 13:47:13;;;;;;;;;4.25;4.00;;;;;;;;5051848;28;46070;-62
2023/05/30 13:49:39;;;;;;;;;7.25;4.75;;;;;;;;5054050;28;45270;-61
2023/05/30 13:52:05;;;;;;;;;6.75;5.00;;;;;;;;5054444;28;45720;-60
2023/05/30 13:54:30;;;;;;;;;5.40;3.20;;;;;;;;5057036;28;45448;-57
2023/05/30 13:56:56;;;;;;;;;5.75;5.75;;;;;;;;5033350;28;45332;-60
2023/05/30 13:59:21;;;;;;;;;6.50;5.00;;;;;;;;5042283;28;45687;-60
2023/05/30 14:01:46;;;;;;;;;7.00;6.00;;;;;;;;5035882;28;45436;-59
2023/05/30 14:04:12;;;;;;;;;7.75;6.00;;;;;;;;5053556;28;45427;-58
2023/05/30 14:06:37;;;;;;;;;7.00;5.25;;;;;;;;5028579;28;46030;-55
2023/05/30 14:09:04;;;;;;;;;8.50;8.50;;;;;;;;5054263;28;45652;-60
2023/05/30 14:11:30;;;;;;;;;11.00;8.60;;;;;;;;5055553;28;46114;-62
2023/05/30 14:13:55;;;;;;;;;6.25;6.25;;;;;;;;5055668;28;45518;-61
2023/05/30 14:16:20;;;;;;;;;6.25;6.00;;;;;;;;5055530;28;45551;-62
2023/05/30 14:18:46;;;;;;;;;4.00;4.00;;;;;;;;5053297;28;46025;-62
2023/05/30 14:21:11;;;;;;;;;5.00;4.25;;;;;;;;5055223;28;46199;-60
2023/05/30 14:23:37;;;;;;;;;4.75;4.75;;;;;;;;5055731;28;45425;-60
2023/05/30 14:26:03;;;;;;;;;6.50;4.50;;;;;;;;5054676;28;45389;-60
2023/05/30 14:28:28;;;;;;;;;5.00;3.25;;;;;;;;5055917;28;45630;-61
2023/05/30 14:30:53;;;;;;;;;3.25;3.25;;;;;;;;5052217;28;47822;-62